Time;durP1;ratioP1;P1;durP2;ratioP2;P2;SDS_P1;SDS_P2;PMS_P1;PMS_P2;Temp;Humidity;BMP_temperature;BMP_pressure;BME280_temperature;BME280_humidity;BME280_pressure;Samples;Min_cycle;Max_cycle;Signal;HPM_P1;HPM_P2
2023/01/01 00:00:45;;;;;;;20.17;12.18;;;17.50;72.60;;;;;;2076575;28;20033;-71
2023/01/01 00:01:46;;;;;;;18.80;11.48;;;17.50;72.30;;;;;;2075694;28;20090;-71
2023/01/01 00:02:46;;;;;;;24.55;12.48;;;17.50;72.30;;;;;;2076431;28;20032;-71
2023/01/01 00:03:51;;;;;;;27.08;12.50;;;17.50;72.40;;;;;;2076776;28;20030;-71
2023/01/01 00:04:51;;;;;;;23.35;11.82;;;17.50;72.40;;;;;;2076326;28;20128;-71
2023/01/01 00:05:52;;;;;;;17.08;9.98;;;17.50;72.30;;;;;;2073928;28;20579;-71
2023/01/01 00:06:52;;;;;;;25.50;15.18;;;17.50;72.10;;;;;;2074645;28;20030;-71
2023/01/01 00:07:53;;;;;;;29.48;18.10;;;17.50;72.10;;;;;;2073551;28;20029;-71
2023/01/01 00:10:26;;;;;;;24.98;15.30;;;17.50;72.60;;;;;;2074434;28;20033;-71
2023/01/01 00:10:29;;;;;;;26.80;16.98;;;17.50;72.40;;;;;;2074326;28;20065;-71
2023/01/01 00:11:29;;;;;;;19.05;10.27;;;17.60;72.60;;;;;;2072550;28;20490;-71
2023/01/01 00:12:31;;;;;;;18.52;11.27;;;17.50;71.40;;;;;;2074258;28;20091;-71
2023/01/01 00:13:32;;;;;;;21.55;11.48;;;17.50;71.60;;;;;;2073975;28;20100;-71
2023/01/01 00:14:33;;;;;;;25.00;13.10;;;17.50;71.70;;;;;;2074253;28;20025;-71
2023/01/01 00:15:33;;;;;;;18.88;10.88;;;17.60;71.50;;;;;;2074388;28;20025;-71
2023/01/01 00:16:34;;;;;;;22.50;13.02;;;17.50;71.30;;;;;;2070692;28;20129;-71
2023/01/01 00:17:34;;;;;;;15.63;10.75;;;17.50;71.40;;;;;;2071986;28;20034;-71
2023/01/01 00:18:35;;;;;;;20.95;12.07;;;17.60;71.40;;;;;;2073912;28;20424;-71
2023/01/01 00:19:37;;;;;;;20.65;12.02;;;17.60;71.30;;;;;;2072444;28;20064;-71
2023/01/01 00:20:37;;;;;;;17.90;11.48;;;17.60;71.30;;;;;;2073480;28;20177;-71
2023/01/01 00:21:38;;;;;;;19.52;10.85;;;17.60;71.30;;;;;;2075557;28;20086;-71
2023/01/01 00:22:39;;;;;;;20.27;10.40;;;17.60;71.30;;;;;;2072616;28;20087;-71
2023/01/01 00:23:40;;;;;;;17.70;11.30;;;17.60;71.20;;;;;;2072304;28;20022;-71
2023/01/01 00:24:41;;;;;;;18.25;10.88;;;17.60;71.00;;;;;;2073830;28;20024;-71
2023/01/01 00:25:41;;;;;;;18.35;9.93;;;17.60;71.10;;;;;;2073301;28;20037;-71
2023/01/01 00:26:42;;;;;;;19.83;11.00;;;17.60;71.00;;;;;;2073029;28;20026;-71
2023/01/01 00:27:43;;;;;;;20.63;10.20;;;17.60;71.00;;;;;;2073524;28;20097;-71
2023/01/01 00:28:44;;;;;;;16.92;10.20;;;17.60;71.10;;;;;;2074834;28;20045;-71
2023/01/01 00:29:45;;;;;;;23.15;11.63;;;17.60;71.10;;;;;;2073863;28;20029;-71
2023/01/01 00:30:45;;;;;;;17.90;11.32;;;17.60;71.00;;;;;;2072027;28;20034;-71
2023/01/01 00:31:46;;;;;;;22.58;13.63;;;17.60;71.30;;;;;;2075792;28;20041;-71
2023/01/01 00:32:46;;;;;;;15.57;10.50;;;17.60;71.20;;;;;;2075121;28;20109;-71
2023/01/01 00:33:53;;;;;;;19.92;11.70;;;17.60;71.00;;;;;;2073492;28;20112;-71
2023/01/01 00:34:54;;;;;;;18.35;10.65;;;17.60;70.80;;;;;;2071905;28;20233;-71
2023/01/01 00:35:54;;;;;;;16.25;10.00;;;17.60;71.00;;;;;;2071951;28;20049;-71
2023/01/01 00:36:56;;;;;;;19.20;10.88;;;17.60;70.80;;;;;;2073560;28;20029;-71
2023/01/01 00:37:57;;;;;;;15.98;11.18;;;17.60;70.80;;;;;;2072356;28;20029;-71
2023/01/01 00:38:57;;;;;;;17.27;12.32;;;17.60;71.00;;;;;;2073733;28;20083;-71
2023/01/01 00:39:59;;;;;;;18.25;12.07;;;17.60;70.80;;;;;;2072587;28;20029;-71
2023/01/01 00:40:59;;;;;;;20.45;12.45;;;17.60;71.50;;;;;;2074531;28;20250;-71
2023/01/01 00:42:00;;;;;;;17.10;12.25;;;17.60;71.50;;;;;;2071925;28;20057;-71
2023/01/01 00:43:00;;;;;;;21.83;11.98;;;17.60;71.80;;;;;;2073084;28;20036;-71
2023/01/01 00:44:01;;;;;;;22.33;13.32;;;17.50;71.80;;;;;;2070114;28;20115;-71
2023/01/01 00:45:01;;;;;;;33.22;12.98;;;17.50;71.90;;;;;;2072642;28;20111;-71
2023/01/01 00:46:03;;;;;;;23.67;12.85;;;17.50;71.60;;;;;;2072946;28;20095;-71
2023/01/01 00:47:04;;;;;;;17.33;12.30;;;17.50;71.80;;;;;;2073713;28;20116;-71
2023/01/01 00:48:04;;;;;;;22.77;13.00;;;17.50;71.70;;;;;;2068962;28;20025;-71
2023/01/01 00:49:05;;;;;;;19.80;13.52;;;17.50;71.30;;;;;;2072884;28;20144;-71
2023/01/01 00:50:06;;;;;;;22.73;13.30;;;17.50;71.50;;;;;;2071593;28;20026;-72
2023/01/01 00:51:06;;;;;;;22.40;13.82;;;17.50;71.70;;;;;;2072131;28;20418;-71
2023/01/01 00:52:07;;;;;;;19.38;12.77;;;17.50;71.70;;;;;;2074559;28;20014;-71
2023/01/01 00:53:08;;;;;;;24.15;14.65;;;17.50;71.50;;;;;;2071907;28;20028;-71
2023/01/01 00:54:08;;;;;;;23.77;14.35;;;17.50;71.70;;;;;;2073701;28;20112;-71
2023/01/01 00:55:09;;;;;;;19.48;13.82;;;17.40;71.40;;;;;;2074078;28;20030;-71
2023/01/01 00:56:10;;;;;;;23.50;14.40;;;17.40;71.10;;;;;;2074062;28;20105;-71
2023/01/01 00:57:10;;;;;;;23.95;14.30;;;17.40;70.90;;;;;;2074032;28;20030;-71
2023/01/01 00:58:11;;;;;;;20.90;15.07;;;17.40;70.60;;;;;;2075131;28;20124;-71
2023/01/01 00:59:12;;;;;;;22.88;14.45;;;17.40;70.90;;;;;;2073438;28;20022;-71
2023/01/01 01:00:13;;;;;;;22.35;15.68;;;17.40;70.60;;;;;;2072933;28;20026;-71
2023/01/01 01:01:14;;;;;;;27.27;14.90;;;17.40;70.30;;;;;;2072555;28;20143;-71
2023/01/01 01:02:14;;;;;;;21.98;15.38;;;17.40;70.40;;;;;;2072799;28;20030;-71
2023/01/01 01:03:27;;;;;;;22.27;15.70;;;17.40;70.50;;;;;;2074432;28;20592;-71
2023/01/01 01:04:27;;;;;;;25.13;15.27;;;17.40;70.40;;;;;;2072907;28;20025;-71
2023/01/01 01:05:28;;;;;;;20.42;14.63;;;17.40;70.30;;;;;;2072593;28;20116;-71
2023/01/01 01:06:29;;;;;;;24.70;15.15;;;17.40;69.90;;;;;;2074332;28;20495;-71
2023/01/01 01:07:35;;;;;;;21.25;14.63;;;17.40;69.60;;;;;;2073318;28;20041;-71
2023/01/01 01:08:37;;;;;;;23.05;14.05;;;17.40;69.50;;;;;;2073964;28;20476;-71
2023/01/01 01:09:38;;;;;;;20.90;13.75;;;17.40;69.60;;;;;;2072329;28;20036;-71
2023/01/01 01:10:38;;;;;;;16.55;13.32;;;17.40;70.60;;;;;;2072397;28;20669;-71
2023/01/01 01:11:39;;;;;;;21.25;14.30;;;17.40;69.10;;;;;;2075357;28;20021;-71
2023/01/01 01:12:39;;;;;;;21.48;13.43;;;17.30;69.10;;;;;;2074577;28;20084;-71
2023/01/01 01:13:41;;;;;;;22.63;13.93;;;17.40;69.40;;;;;;2072778;28;20083;-71
2023/01/01 01:14:41;;;;;;;20.90;13.18;;;17.40;69.30;;;;;;2072117;28;20660;-71
2023/01/01 01:15:42;;;;;;;19.85;12.70;;;17.40;69.30;;;;;;2071993;28;20083;-71
2023/01/01 01:16:42;;;;;;;18.98;11.57;;;17.40;69.60;;;;;;2074697;28;20025;-71
2023/01/01 01:17:43;;;;;;;17.65;11.63;;;17.40;69.50;;;;;;2073158;28;20041;-71
2023/01/01 01:18:44;;;;;;;17.90;11.75;;;17.30;69.00;;;;;;2072853;28;20096;-71
2023/01/01 01:19:45;;;;;;;16.92;11.02;;;17.30;69.20;;;;;;2072882;28;20026;-71
2023/01/01 01:20:50;;;;;;;14.95;10.80;;;17.30;68.80;;;;;;2071218;28;20098;-71
2023/01/01 01:21:51;;;;;;;15.15;10.82;;;17.30;68.40;;;;;;2073249;28;20018;-71
2023/01/01 01:22:51;;;;;;;17.48;10.27;;;17.30;68.70;;;;;;2073465;28;20022;-71
2023/01/01 01:23:53;;;;;;;15.30;9.48;;;17.30;68.50;;;;;;2072695;28;20049;-71
2023/01/01 01:24:53;;;;;;;14.23;9.80;;;17.30;67.80;;;;;;2074418;28;20232;-71
2023/01/01 01:25:54;;;;;;;14.23;8.80;;;17.30;67.70;;;;;;2074354;28;20030;-71
2023/01/01 01:26:54;;;;;;;14.52;9.20;;;17.30;67.60;;;;;;2074435;28;20021;-71
2023/01/01 01:27:55;;;;;;;21.40;10.07;;;17.30;67.60;;;;;;2074071;28;20373;-71
2023/01/01 01:28:57;;;;;;;13.95;8.90;;;17.30;67.80;;;;;;2073191;28;20038;-71
2023/01/01 01:29:57;;;;;;;15.55;8.77;;;17.30;67.80;;;;;;2073732;28;20116;-71
2023/01/01 01:30:59;;;;;;;13.30;8.48;;;17.30;67.60;;;;;;2072953;28;20061;-71
2023/01/01 01:31:59;;;;;;;13.20;7.85;;;17.20;67.50;;;;;;2072613;28;20112;-71
2023/01/01 01:33:00;;;;;;;14.32;9.73;;;17.30;67.80;;;;;;2071083;28;20481;-71
2023/01/01 01:34:01;;;;;;;11.27;7.60;;;17.20;67.80;;;;;;2072933;28;20537;-71
2023/01/01 01:35:01;;;;;;;14.82;8.07;;;17.30;67.60;;;;;;2074024;28;20025;-71
2023/01/01 01:36:03;;;;;;;13.75;8.65;;;17.20;67.20;;;;;;2073021;28;20038;-71
2023/01/01 01:37:04;;;;;;;12.60;7.97;;;17.20;67.20;;;;;;2073441;28;20036;-71
2023/01/01 01:38:05;;;;;;;11.07;8.02;;;17.20;67.10;;;;;;2072751;28;20041;-71
2023/01/01 01:39:10;;;;;;;11.70;8.02;;;17.20;67.10;;;;;;2073736;28;20025;-71
2023/01/01 01:40:14;;;;;;;13.73;7.72;;;17.20;66.90;;;;;;2070421;28;20038;-71
2023/01/01 01:41:17;;;;;;;9.95;7.25;;;17.20;67.00;;;;;;2075538;28;20036;-71
2023/01/01 01:42:18;;;;;;;24.02;8.00;;;17.20;66.70;;;;;;2074622;28;20096;-71
2023/01/01 01:43:31;;;;;;;11.63;7.30;;;17.20;67.60;;;;;;2072400;28;20056;-71
2023/01/01 01:44:57;;;;;;;11.43;7.40;;;17.20;66.90;;;;;;2074286;28;20476;-71
2023/01/01 01:46:03;;;;;;;10.40;6.88;;;17.10;66.80;;;;;;2075266;28;20025;-71
2023/01/01 01:47:03;;;;;;;9.15;7.22;;;17.10;66.80;;;;;;2073626;28;20064;-71
2023/01/01 01:48:04;;;;;;;10.65;7.97;;;17.10;66.60;;;;;;2073476;28;20034;-71
2023/01/01 01:49:19;;;;;;;10.25;7.05;;;17.10;66.80;;;;;;2072881;28;20029;-71
2023/01/01 01:50:31;;;;;;;10.85;7.18;;;17.10;66.50;;;;;;2073346;28;20080;-71
2023/01/01 01:51:35;;;;;;;12.82;7.28;;;17.10;66.40;;;;;;2074377;28;20017;-71
2023/01/01 01:52:41;;;;;;;14.43;7.40;;;17.10;66.90;;;;;;2074286;28;20362;-71
2023/01/01 01:53:48;;;;;;;11.48;7.65;;;17.10;67.00;;;;;;2076203;28;20030;-71
2023/01/01 01:54:48;;;;;;;11.77;6.82;;;17.10;66.70;;;;;;2074097;28;20473;-71
2023/01/01 01:56:06;;;;;;;8.25;6.80;;;17.10;66.90;;;;;;2072366;28;20563;-71
2023/01/01 01:57:10;;;;;;;10.35;6.50;;;17.00;65.80;;;;;;2073959;28;20029;-71
2023/01/01 01:58:13;;;;;;;12.18;7.05;;;17.00;66.10;;;;;;2072534;28;20537;-71
2023/01/01 01:59:15;;;;;;;11.18;6.78;;;17.00;66.40;;;;;;2074693;28;20033;-71
2023/01/01 02:00:15;;;;;;;10.32;6.50;;;17.00;66.60;;;;;;2074220;28;20030;-71
2023/01/01 02:01:16;;;;;;;12.00;6.13;;;17.00;66.40;;;;;;2075569;28;20109;-71
2023/01/01 02:02:32;;;;;;;14.68;6.90;;;17.00;65.90;;;;;;2074824;28;20160;-71
2023/01/01 02:03:43;;;;;;;15.25;6.25;;;17.00;64.50;;;;;;2074302;28;20020;-71
2023/01/01 02:04:44;;;;;;;11.68;5.80;;;17.00;64.80;;;;;;2074243;28;20041;-71
2023/01/01 02:05:45;;;;;;;9.07;5.47;;;17.00;65.10;;;;;;2071064;28;20152;-71
2023/01/01 02:06:46;;;;;;;10.80;5.55;;;17.00;65.40;;;;;;2074464;28;20653;-71
2023/01/01 02:07:48;;;;;;;8.25;6.18;;;17.00;65.60;;;;;;2071576;28;20036;-71
2023/01/01 02:08:49;;;;;;;10.05;5.40;;;17.00;65.40;;;;;;2073936;28;20026;-71
2023/01/01 02:09:50;;;;;;;11.35;5.30;;;17.00;65.40;;;;;;2075155;28;20327;-71
2023/01/01 02:10:51;;;;;;;9.73;5.07;;;17.00;65.40;;;;;;2074408;28;20080;-71
2023/01/01 02:11:51;;;;;;;10.10;4.38;;;17.00;64.80;;;;;;2075155;28;20665;-71
2023/01/01 02:12:52;;;;;;;9.93;4.80;;;17.00;64.70;;;;;;2072525;28;20474;-71
2023/01/01 02:13:54;;;;;;;9.07;4.35;;;17.00;64.70;;;;;;2074706;28;20126;-71
2023/01/01 02:14:54;;;;;;;7.85;4.10;;;16.90;64.60;;;;;;2073575;28;20079;-71
2023/01/01 02:16:17;;;;;;;7.05;4.13;;;16.90;64.80;;;;;;2072902;28;20148;-71
2023/01/01 02:17:33;;;;;;;12.52;4.85;;;16.90;64.30;;;;;;2075182;28;20493;-71
2023/01/01 02:18:51;;;;;;;9.75;4.43;;;17.00;64.70;;;;;;2074120;28;20373;-71
2023/01/01 02:20:04;;;;;;;5.50;3.63;;;16.90;64.60;;;;;;2072626;28;20029;-71
2023/01/01 02:21:13;;;;;;;8.23;4.05;;;16.90;64.60;;;;;;2073433;28;20124;-71
2023/01/01 02:22:31;;;;;;;10.98;3.97;;;16.90;64.70;;;;;;2072674;28;20029;-71
2023/01/01 02:23:54;;;;;;;6.40;4.18;;;16.90;64.30;;;;;;2073727;28;20108;-71
2023/01/01 02:25:25;;;;;;;8.85;3.53;;;16.80;64.40;;;;;;2072912;28;20026;-71
2023/01/01 02:26:37;;;;;;;7.95;3.55;;;16.80;64.20;;;;;;2073802;28;20025;-71
2023/01/01 02:27:53;;;;;;;6.35;3.03;;;16.80;64.00;;;;;;2073163;28;20148;-71
2023/01/01 02:28:53;;;;;;;7.43;3.83;;;16.80;63.90;;;;;;2073496;28;20084;-71
2023/01/01 02:30:04;;;;;;;5.90;3.28;;;16.80;64.70;;;;;;2074787;28;20116;-71
2023/01/01 02:31:06;;;;;;;7.22;3.35;;;16.80;63.80;;;;;;2073927;28;20080;-71
2023/01/01 02:32:13;;;;;;;7.15;2.95;;;16.80;64.50;;;;;;2073370;28;20033;-71
2023/01/01 02:33:19;;;;;;;4.90;2.47;;;16.80;64.10;;;;;;2073290;28;20115;-71
2023/01/01 02:34:25;;;;;;;4.18;2.70;;;16.70;64.10;;;;;;2073804;28;20029;-71
2023/01/01 02:35:49;;;;;;;4.95;2.33;;;16.70;64.20;;;;;;2073158;28;20037;-71
2023/01/01 02:36:53;;;;;;;4.57;2.75;;;16.80;64.60;;;;;;2071960;28;20033;-71
2023/01/01 02:37:58;;;;;;;5.72;2.80;;;16.70;63.90;;;;;;2072957;28;20030;-71
2023/01/01 02:39:01;;;;;;;4.60;2.15;;;16.80;64.50;;;;;;2074571;28;20025;-71
2023/01/01 02:40:03;;;;;;;7.57;2.47;;;16.70;64.40;;;;;;2071724;28;20556;-71
2023/01/01 02:41:27;;;;;;;4.13;1.98;;;16.70;64.30;;;;;;2073231;28;20036;-71
2023/01/01 02:42:28;;;;;;;8.57;2.22;;;16.70;63.30;;;;;;2071871;28;20058;-71
2023/01/01 02:43:29;;;;;;;3.85;1.90;;;16.70;64.20;;;;;;2075341;28;20075;-71
2023/01/01 02:44:33;;;;;;;8.18;2.42;;;16.70;63.90;;;;;;2072787;28;20667;-71
2023/01/01 02:45:34;;;;;;;4.80;2.05;;;16.70;63.10;;;;;;2073681;28;20164;-71
2023/01/01 02:46:35;;;;;;;4.68;1.98;;;16.70;63.70;;;;;;2074492;28;20033;-71
2023/01/01 02:47:37;;;;;;;8.35;2.00;;;16.70;64.20;;;;;;2072887;28;20235;-71
2023/01/01 02:48:46;;;;;;;3.08;1.92;;;16.70;64.30;;;;;;2074366;28;20117;-70
2023/01/01 02:50:19;;;;;;;5.45;1.50;;;16.70;64.30;;;;;;2073607;28;20040;-71
2023/01/01 02:51:22;;;;;;;5.90;1.75;;;16.70;63.70;;;;;;2074403;28;20132;-71
2023/01/01 02:52:39;;;;;;;3.63;1.75;;;16.70;63.80;;;;;;2073943;28;20184;-70
2023/01/01 02:54:06;;;;;;;4.30;1.77;;;16.70;63.70;;;;;;2073340;28;20472;-71
2023/01/01 02:55:25;;;;;;;4.43;1.80;;;16.70;63.60;;;;;;2073182;28;20033;-70
2023/01/01 02:56:47;;;;;;;5.47;1.67;;;16.70;63.60;;;;;;2074810;28;20029;-70
2023/01/01 03:01:41;;;;;;;4.07;1.92;;;16.60;64.00;;;;;;2073423;28;20428;-71
2023/01/01 03:03:17;;;;;;;3.17;1.52;;;16.60;63.70;;;;;;2075779;28;20032;-71
2023/01/01 03:04:32;;;;;;;9.07;1.80;;;16.60;64.00;;;;;;2072642;28;20589;-71
2023/01/01 03:07:42;;;;;;;3.83;1.80;;;16.50;64.80;;;;;;2074657;28;20041;-71
2023/01/01 03:08:58;;;;;;;4.97;1.33;;;16.50;64.50;;;;;;2073895;28;20033;-71
2023/01/01 03:10:13;;;;;;;10.15;2.03;;;16.50;64.60;;;;;;2072416;28;20689;-71
2023/01/01 03:11:17;;;;;;;3.83;1.58;;;16.50;64.40;;;;;;2072642;28;20520;-71
2023/01/01 03:12:42;;;;;;;5.15;1.70;;;16.50;65.30;;;;;;2072173;28;20654;-71
2023/01/01 03:14:27;;;;;;;5.43;1.83;;;16.50;64.10;;;;;;2072596;28;20075;-71
2023/01/01 03:15:56;;;;;;;7.68;1.70;;;16.50;64.30;;;;;;2073969;28;20034;-71
2023/01/01 03:17:19;;;;;;;3.60;1.48;;;16.50;64.60;;;;;;2077576;28;20029;-71
2023/01/01 03:18:40;;;;;;;4.18;1.70;;;16.50;64.80;;;;;;2076056;28;20029;-71
2023/01/01 03:19:42;;;;;;;4.32;1.65;;;16.50;64.10;;;;;;2074415;28;20068;-71
2023/01/01 03:20:47;;;;;;;3.72;1.40;;;16.50;64.80;;;;;;2074266;28;20030;-71
2023/01/01 03:22:10;;;;;;;3.13;1.88;;;16.50;65.00;;;;;;2075537;28;20018;-71
2023/01/01 03:23:20;;;;;;;3.92;1.60;;;16.50;64.70;;;;;;2071952;28;20077;-71
2023/01/01 03:24:30;;;;;;;7.53;1.98;;;16.50;64.70;;;;;;2076012;28;20025;-71
2023/01/01 03:25:35;;;;;;;4.13;1.60;;;16.50;64.90;;;;;;2073630;28;20022;-71
2023/01/01 03:26:37;;;;;;;4.57;1.27;;;16.50;64.80;;;;;;2075154;28;20030;-71
2023/01/01 03:27:51;;;;;;;5.07;2.20;;;16.50;65.30;;;;;;2074665;28;20061;-71
2023/01/01 03:28:57;;;;;;;5.60;1.50;;;16.50;65.00;;;;;;2072723;28;20475;-71
2023/01/01 03:30:01;;;;;;;5.63;1.23;;;16.50;64.90;;;;;;2073009;28;20028;-71
2023/01/01 03:31:02;;;;;;;3.67;1.40;;;16.50;65.10;;;;;;2074718;28;20037;-71
2023/01/01 03:32:05;;;;;;;2.88;1.55;;;16.50;64.90;;;;;;2072599;28;20030;-71
2023/01/01 03:33:14;;;;;;;5.63;1.65;;;16.50;65.20;;;;;;2070517;28;20088;-71
2023/01/01 03:34:24;;;;;;;5.65;1.58;;;16.50;65.30;;;;;;2070871;28;20034;-71
2023/01/01 03:35:29;;;;;;;7.55;1.65;;;16.50;65.30;;;;;;2073040;28;20087;-71
2023/01/01 03:36:36;;;;;;;4.28;1.60;;;16.40;64.90;;;;;;2071648;28;20393;-71
2023/01/01 03:37:37;;;;;;;5.53;1.92;;;16.40;65.20;;;;;;2073574;28;20154;-71
2023/01/01 03:38:49;;;;;;;2.67;1.48;;;16.40;65.30;;;;;;2073065;28;20079;-71
2023/01/01 03:39:56;;;;;;;4.53;1.48;;;16.50;65.30;;;;;;2072745;28;20092;-70
2023/01/01 03:41:04;;;;;;;5.05;1.73;;;16.40;65.30;;;;;;2073232;28;20018;-71
2023/01/01 03:42:16;;;;;;;4.30;1.90;;;16.50;65.40;;;;;;2073946;28;20022;-71
2023/01/01 03:43:43;;;;;;;5.55;1.45;;;16.40;65.80;;;;;;2073349;28;20040;-71
2023/01/01 03:44:56;;;;;;;6.97;1.52;;;16.50;65.70;;;;;;2073474;28;20073;-71
2023/01/01 03:46:00;;;;;;;2.63;1.30;;;16.40;65.70;;;;;;2074027;28;20083;-71
2023/01/01 03:47:03;;;;;;;4.55;1.50;;;16.40;66.00;;;;;;2074823;28;20709;-71
2023/01/01 03:48:04;;;;;;;3.50;1.48;;;16.40;65.90;;;;;;2074684;28;20022;-71
2023/01/01 03:49:08;;;;;;;3.10;1.25;;;16.40;65.80;;;;;;2074643;28;20030;-71
2023/01/01 03:50:09;;;;;;;2.35;1.27;;;16.40;65.90;;;;;;2074420;28;20045;-71
2023/01/01 03:51:21;;;;;;;9.70;2.75;;;16.40;66.00;;;;;;2076194;28;20052;-71
2023/01/01 03:52:36;;;;;;;3.15;1.63;;;16.40;65.70;;;;;;2073016;28;20033;-71
2023/01/01 03:53:43;;;;;;;4.55;1.58;;;16.40;65.90;;;;;;2074492;28;20470;-71
2023/01/01 03:54:57;;;;;;;3.72;1.40;;;16.40;65.80;;;;;;2074758;28;20030;-71
2023/01/01 03:56:14;;;;;;;2.47;1.20;;;16.40;65.60;;;;;;2076434;28;20022;-71
2023/01/01 03:57:42;;;;;;;2.63;1.52;;;16.40;66.00;;;;;;2073643;28;20028;-70
2023/01/01 03:58:54;;;;;;;4.63;1.20;;;16.40;65.80;;;;;;2075592;28;20072;-71
2023/01/01 04:00:04;;;;;;;5.18;1.67;;;16.30;66.20;;;;;;2074526;28;20029;-71
2023/01/01 04:01:10;;;;;;;5.82;1.30;;;16.40;66.10;;;;;;2074748;28;20044;-71
2023/01/01 04:02:14;;;;;;;2.70;1.33;;;16.30;66.30;;;;;;2075998;28;20343;-71
2023/01/01 04:03:20;;;;;;;4.65;1.23;;;16.40;66.50;;;;;;2074261;28;20426;-71
2023/01/01 04:04:22;;;;;;;2.55;1.35;;;16.40;66.50;;;;;;2075556;28;20048;-71
2023/01/01 04:05:23;;;;;;;4.18;1.65;;;16.40;66.20;;;;;;2074703;28;20498;-71
2023/01/01 04:06:24;;;;;;;2.70;1.30;;;16.40;66.30;;;;;;2075012;28;20772;-71
2023/01/01 04:07:27;;;;;;;4.97;1.55;;;16.40;66.60;;;;;;2073961;28;20515;-71
2023/01/01 04:08:28;;;;;;;6.70;1.95;;;16.40;66.40;;;;;;2074670;28;20081;-71
2023/01/01 04:09:31;;;;;;;4.60;1.80;;;16.40;66.30;;;;;;2074160;28;20363;-71
2023/01/01 04:10:35;;;;;;;4.60;1.45;;;16.40;66.50;;;;;;2074361;28;20406;-71
2023/01/01 04:12:00;;;;;;;3.72;1.50;;;16.40;66.40;;;;;;2073491;28;20037;-71
2023/01/01 04:13:04;;;;;;;2.72;1.50;;;16.40;66.80;;;;;;2074584;28;20025;-71
2023/01/01 04:14:04;;;;;;;5.80;1.83;;;16.40;66.70;;;;;;2074854;28;20033;-71
2023/01/01 04:15:05;;;;;;;4.13;1.45;;;16.40;66.80;;;;;;2074250;28;20026;-71
2023/01/01 04:16:06;;;;;;;3.88;1.35;;;16.40;66.70;;;;;;2073431;28;20052;-71
2023/01/01 04:17:09;;;;;;;2.65;1.58;;;16.40;66.70;;;;;;2073766;28;20550;-71
2023/01/01 04:18:10;;;;;;;2.80;1.17;;;16.40;66.90;;;;;;2074554;28;20017;-71
2023/01/01 04:19:10;;;;;;;3.60;2.03;;;16.40;67.00;;;;;;2074076;28;20500;-71
2023/01/01 04:20:11;;;;;;;4.47;1.40;;;16.40;67.30;;;;;;2073311;28;20025;-71
2023/01/01 04:21:12;;;;;;;4.70;1.70;;;16.40;67.50;;;;;;2073842;28;20402;-71
2023/01/01 04:22:13;;;;;;;6.80;1.20;;;16.40;68.00;;;;;;2074729;28;20043;-71
2023/01/01 04:23:13;;;;;;;5.90;1.50;;;16.40;67.80;;;;;;2074089;28;20029;-71
2023/01/01 04:24:14;;;;;;;4.57;1.17;;;16.40;67.60;;;;;;2075091;28;20029;-71
2023/01/01 04:25:16;;;;;;;2.50;1.33;;;16.40;67.80;;;;;;2073095;28;20092;-71
2023/01/01 04:26:16;;;;;;;5.28;1.90;;;16.40;67.90;;;;;;2074916;28;20017;-71
2023/01/01 04:27:17;;;;;;;3.63;1.55;;;16.40;67.80;;;;;;2073742;28;20053;-71
2023/01/01 04:28:19;;;;;;;2.80;1.45;;;16.40;68.00;;;;;;2074248;28;20056;-71
2023/01/01 04:29:20;;;;;;;5.25;1.60;;;16.40;68.10;;;;;;2075348;28;20080;-71
2023/01/01 04:30:21;;;;;;;3.53;1.35;;;16.40;68.20;;;;;;2074074;28;20715;-71
2023/01/01 04:31:21;;;;;;;3.70;1.42;;;16.40;68.10;;;;;;2076108;28;20125;-71
2023/01/01 04:32:22;;;;;;;5.32;1.65;;;16.40;68.20;;;;;;2073897;28;20021;-71
2023/01/01 04:33:22;;;;;;;5.53;1.40;;;16.40;68.30;;;;;;2074831;28;20101;-71
2023/01/01 04:34:23;;;;;;;4.85;2.13;;;16.40;68.20;;;;;;2074677;28;20067;-72
2023/01/01 04:35:24;;;;;;;2.00;1.08;;;16.40;68.30;;;;;;2073886;28;20030;-71
2023/01/01 04:36:24;;;;;;;4.05;1.50;;;16.40;68.40;;;;;;2075001;28;20040;-71
2023/01/01 04:37:26;;;;;;;4.65;1.30;;;16.40;68.30;;;;;;2076029;28;20018;-71
2023/01/01 04:38:26;;;;;;;4.38;1.40;;;16.40;68.50;;;;;;2073376;28;20018;-71
2023/01/01 04:39:27;;;;;;;4.80;1.20;;;16.40;68.40;;;;;;2075074;28;20083;-71
2023/01/01 04:40:27;;;;;;;6.65;1.45;;;16.40;68.60;;;;;;2075321;28;20024;-71
2023/01/01 04:41:28;;;;;;;2.33;1.60;;;16.40;68.70;;;;;;2075741;28;20464;-71
2023/01/01 04:42:28;;;;;;;2.55;1.23;;;16.40;68.70;;;;;;2073904;28;20346;-71
2023/01/01 04:43:30;;;;;;;2.85;1.48;;;16.40;68.90;;;;;;2074584;28;20060;-71
2023/01/01 04:44:31;;;;;;;4.28;1.70;;;16.40;68.70;;;;;;2073416;28;20046;-71
2023/01/01 04:45:32;;;;;;;4.00;1.50;;;16.40;68.80;;;;;;2075607;28;20033;-71
2023/01/01 04:46:32;;;;;;;3.10;1.40;;;16.40;68.80;;;;;;2074570;28;20029;-71
2023/01/01 04:47:33;;;;;;;3.38;1.75;;;16.40;69.20;;;;;;2074574;28;20030;-71
2023/01/01 04:48:34;;;;;;;3.38;1.48;;;16.40;69.10;;;;;;2074885;28;20741;-71
2023/01/01 04:49:35;;;;;;;3.95;1.40;;;16.40;69.00;;;;;;2074862;28;20393;-71
2023/01/01 04:50:35;;;;;;;7.63;1.60;;;16.40;69.20;;;;;;2076256;28;20029;-71
2023/01/01 04:51:36;;;;;;;5.65;1.33;;;16.40;69.30;;;;;;2075108;28;20025;-71
2023/01/01 04:52:36;;;;;;;3.97;1.73;;;16.40;69.30;;;;;;2072575;28;20486;-71
2023/01/01 04:53:37;;;;;;;5.40;1.85;;;16.40;69.40;;;;;;2075901;28;20026;-71
2023/01/01 04:54:37;;;;;;;5.03;1.45;;;16.40;69.30;;;;;;2077308;28;20061;-71
2023/01/01 04:55:38;;;;;;;7.18;1.70;;;16.40;69.40;;;;;;2074834;28;20550;-71
2023/01/01 04:56:38;;;;;;;2.85;1.60;;;16.40;69.40;;;;;;2073136;28;20049;-71
2023/01/01 04:57:39;;;;;;;4.45;1.40;;;16.40;69.40;;;;;;2075553;28;20014;-71
2023/01/01 04:58:41;;;;;;;5.57;1.60;;;16.40;69.50;;;;;;2073864;28;20022;-71
2023/01/01 04:59:42;;;;;;;4.03;1.52;;;16.40;69.60;;;;;;2072386;28;20670;-71
2023/01/01 05:00:42;;;;;;;5.50;1.42;;;16.40;69.80;;;;;;2074698;28;20424;-71
2023/01/01 05:01:43;;;;;;;3.95;1.80;;;16.40;70.00;;;;;;2075283;28;20117;-71
2023/01/01 05:02:43;;;;;;;6.40;1.58;;;16.40;70.00;;;;;;2075236;28;20039;-71
2023/01/01 05:03:44;;;;;;;1.85;1.48;;;16.40;70.10;;;;;;2072273;28;20064;-71
2023/01/01 05:04:45;;;;;;;8.93;2.65;;;16.40;70.00;;;;;;2075257;28;20025;-71
2023/01/01 05:05:46;;;;;;;3.63;1.40;;;16.40;70.10;;;;;;2074183;28;20113;-71
2023/01/01 05:06:46;;;;;;;3.83;1.45;;;16.40;70.10;;;;;;2072718;28;20053;-71
2023/01/01 05:07:47;;;;;;;3.42;1.63;;;16.40;70.30;;;;;;2074361;28;20056;-71
2023/01/01 05:08:48;;;;;;;3.15;1.17;;;16.40;70.60;;;;;;2074172;28;20041;-71
2023/01/01 05:09:49;;;;;;;4.88;2.03;;;16.40;70.80;;;;;;2074186;28;20410;-71
2023/01/01 05:10:49;;;;;;;3.42;1.65;;;16.40;71.00;;;;;;2075569;28;20568;-71
2023/01/01 05:11:50;;;;;;;3.78;1.20;;;16.40;70.80;;;;;;2074691;28;20034;-71
2023/01/01 05:12:50;;;;;;;5.75;1.77;;;16.40;71.10;;;;;;2073677;28;20034;-71
2023/01/01 05:13:53;;;;;;;5.78;1.60;;;16.40;71.10;;;;;;2073381;28;20024;-71
2023/01/01 05:14:54;;;;;;;3.58;1.50;;;16.40;71.00;;;;;;2074426;28;20037;-71
2023/01/01 05:15:54;;;;;;;4.15;1.73;;;16.40;71.00;;;;;;2073695;28;20033;-71
2023/01/01 05:16:55;;;;;;;4.38;1.75;;;16.40;71.00;;;;;;2074377;28;20033;-71
2023/01/01 05:17:55;;;;;;;3.28;1.60;;;16.40;71.00;;;;;;2075746;28;20036;-71
2023/01/01 05:18:56;;;;;;;6.20;1.48;;;16.40;71.30;;;;;;2071942;28;20014;-71
2023/01/01 05:19:58;;;;;;;3.92;1.45;;;16.40;71.40;;;;;;2075163;28;20124;-71
2023/01/01 05:21:05;;;;;;;7.15;1.73;;;16.40;71.40;;;;;;2073323;28;20021;-71
2023/01/01 05:22:05;;;;;;;5.43;1.60;;;16.40;71.20;;;;;;2074615;28;20404;-71
2023/01/01 05:23:06;;;;;;;6.43;1.70;;;16.40;71.60;;;;;;2073560;28;20067;-71
2023/01/01 05:24:09;;;;;;;3.55;1.63;;;16.30;71.50;;;;;;2074225;28;20025;-71
2023/01/01 05:25:09;;;;;;;3.63;2.28;;;16.40;71.40;;;;;;2074394;28;20018;-71
2023/01/01 05:26:17;;;;;;;3.90;1.40;;;16.40;71.70;;;;;;2074631;28;20568;-72
2023/01/01 05:27:17;;;;;;;4.50;1.40;;;16.40;72.00;;;;;;2076658;28;20124;-71
2023/01/01 05:28:18;;;;;;;7.00;1.73;;;16.40;72.00;;;;;;2074769;28;20032;-71
2023/01/01 05:29:19;;;;;;;4.70;1.30;;;16.40;72.00;;;;;;2076082;28;20600;-71
2023/01/01 05:30:19;;;;;;;4.88;1.75;;;16.40;72.10;;;;;;2072421;28;20050;-71
2023/01/01 05:31:22;;;;;;;6.35;1.60;;;16.40;72.30;;;;;;2076277;28;20075;-71
2023/01/01 05:32:23;;;;;;;5.25;1.73;;;16.30;72.20;;;;;;2073617;28;20017;-71
2023/01/01 05:33:23;;;;;;;3.55;1.70;;;16.30;72.20;;;;;;2073727;28;20029;-71
2023/01/01 05:34:24;;;;;;;4.05;1.30;;;16.40;72.40;;;;;;2074094;28;20057;-71
2023/01/01 05:35:24;;;;;;;2.97;1.30;;;16.40;72.50;;;;;;2073874;28;20828;-71
2023/01/01 05:36:31;;;;;;;2.95;1.30;;;16.30;72.50;;;;;;2074384;28;20025;-71
2023/01/01 05:37:31;;;;;;;7.53;1.38;;;16.30;72.80;;;;;;2074211;28;20032;-71
2023/01/01 05:38:32;;;;;;;5.68;1.70;;;16.30;72.80;;;;;;2074180;28;20044;-71
2023/01/01 05:39:32;;;;;;;7.68;1.85;;;16.30;72.60;;;;;;2075324;28;20029;-71